CYNM

Matagami Airport

Matagami, Quebec, Canada
METAR CYNM 221800Z AUTO VRB06KT 9SM CLR 10/M12 A3033 RMK SLP287
Observed Flight Rules
Apr-22 @ 18:00 UTC (21 minutes ago) Visual Flight Rules
Wind Visibility Clouds
Variable at 6 knots 9 miles
  • Clear skies
Temperatures Readings
Current 10°C / 50°F
Dewpoint -12°C / 10°F
Humidity 20%
Altimeter 30.33" Hg
Pressure 1028.7 hPa
Elevation 281
METAR CYNM 221800Z AUTO VRB06KT 9SM CLR 10/M12 A3033 RMK SLP287
Observed Flight Rules
Apr-22 @ 18:00 UTC
(21 minutes ago)
VFR
Wind Visibility
Variable at 6 knots 9 miles
Clouds
  • Clear skies
Temperature Dewpoint
10°C / 50°F -12°C / 10°F
Humidity Altimeter Pressure
20% 30.33" Hg 1028.7 hPa